createdAt,value
2018-11-20T00:02:18.758Z,100737.09
2018-11-20T00:07:33.517Z,100737.50
2018-11-20T00:12:47.254Z,100724.65
2018-11-20T00:17:54.165Z,100722.03
2018-11-20T00:23:07.610Z,100714.95
2018-11-20T00:28:11.951Z,100711.59
2018-11-20T00:33:32.553Z,100692.87
2018-11-20T00:38:46.309Z,100687.56
2018-11-20T00:44:04.150Z,100680.61
2018-11-20T00:49:27.950Z,100685.66
2018-11-20T00:54:41.631Z,100672.23
2018-11-20T01:00:03.988Z,100668.41
2018-11-20T01:05:25.159Z,100660.60
2018-11-20T01:10:52.090Z,100650.13
2018-11-20T01:16:09.845Z,100641.41
2018-11-20T01:21:24.930Z,100631.45
2018-11-20T01:26:48.953Z,100642.81
2018-11-20T01:32:05.947Z,100645.80
2018-11-20T01:37:23.907Z,100646.25
2018-11-20T01:42:37.459Z,100646.20
2018-11-20T01:47:50.948Z,100628.31
2018-11-20T01:53:11.471Z,100623.13
2018-11-20T01:58:38.607Z,100622.34
2018-11-20T02:03:53.940Z,100615.22
2018-11-20T02:09:07.483Z,100606.58
2018-11-20T02:14:49.993Z,100598.25
2018-11-20T02:20:04.849Z,100591.75
2018-11-20T02:25:25.526Z,100593.06
2018-11-20T02:30:39.008Z,100581.44
2018-11-20T02:35:53.860Z,100572.75
2018-11-20T02:41:24.307Z,100577.98
2018-11-20T02:46:33.399Z,100563.63
2018-11-20T02:51:46.897Z,100560.44
2018-11-20T02:57:13.916Z,100558.58
2018-11-20T03:02:27.461Z,100553.01
2018-11-20T03:07:41.327Z,100555.96
2018-11-20T03:13:00.115Z,100592.33
2018-11-20T03:18:13.845Z,100579.24
2018-11-20T03:23:23.828Z,100564.12
2018-11-20T03:28:48.145Z,100558.55
2018-11-20T03:34:13.462Z,100541.01
2018-11-20T03:39:24.391Z,100521.53
2018-11-20T03:44:27.161Z,100515.59
2018-11-20T03:49:40.910Z,100523.91
2018-11-20T03:55:01.838Z,100521.30
2018-11-20T04:00:16.718Z,100520.38
2018-11-20T04:05:37.401Z,100514.23
2018-11-20T04:10:58.095Z,100509.86
2018-11-20T04:16:01.787Z,100500.30
2018-11-20T04:21:16.649Z,100496.01
2018-11-20T04:26:30.289Z,100482.27
2018-11-20T04:32:25.652Z,100471.80
2018-11-20T04:37:40.865Z,100473.69
2018-11-20T04:42:52.758Z,100474.99
2018-11-20T04:48:05.384Z,100474.89
2018-11-20T04:53:32.194Z,100472.66
2018-11-20T04:58:55.526Z,100473.58
2018-11-20T05:04:08.985Z,100468.73
2018-11-20T05:09:24.363Z,100463.00
2018-11-20T05:14:37.815Z,100466.44
2018-11-20T05:19:51.466Z,100463.77
2018-11-20T05:25:06.326Z,100455.80
2018-11-20T05:30:36.568Z,100450.09
2018-11-20T05:35:54.191Z,100446.11
2018-11-20T05:41:21.087Z,100441.63
2018-11-20T05:46:34.528Z,100434.53
2018-11-20T05:52:04.620Z,100426.68
2018-11-20T05:57:15.194Z,100418.38
2018-11-20T06:02:45.297Z,100424.34
2018-11-20T06:07:58.636Z,100412.98
2018-11-20T06:13:13.462Z,100423.84
2018-11-20T06:18:28.541Z,100416.44
2018-11-20T06:23:31.137Z,100414.30
2018-11-20T06:28:50.337Z,100404.20
2018-11-20T06:34:20.631Z,100403.82
2018-11-20T06:39:35.516Z,100396.41
2018-11-20T06:45:08.482Z,100408.89
2018-11-20T06:50:22.381Z,100410.64
2018-11-20T06:55:39.931Z,100403.23
2018-11-20T07:00:54.153Z,100404.48
2018-11-20T07:06:09.084Z,100412.76
2018-11-20T07:11:26.943Z,100411.39
2018-11-20T07:16:52.550Z,100407.02
2018-11-20T07:22:03.260Z,100410.30
2018-11-20T07:27:11.834Z,100407.13
2018-11-20T07:32:25.502Z,100404.84
2018-11-20T07:37:39.270Z,100412.64
2018-11-20T07:43:03.549Z,100405.64
2018-11-20T07:48:30.614Z,100400.47
2018-11-20T07:53:54.319Z,100407.81
2018-11-20T07:59:27.523Z,100396.78
2018-11-20T08:04:48.079Z,100388.16
2018-11-20T08:10:01.949Z,100390.45
2018-11-20T08:15:06.665Z,100397.22
2018-11-20T08:20:19.880Z,100402.58
2018-11-20T08:25:43.985Z,100384.73
2018-11-20T08:30:58.842Z,100379.56
2018-11-20T08:36:18.981Z,100375.63
2018-11-20T08:41:26.991Z,100380.36
2018-11-20T08:46:51.091Z,100379.20
2018-11-20T08:52:08.696Z,100373.52
2018-11-20T08:57:22.910Z,100380.36
2018-11-20T09:02:36.466Z,100398.71
2018-11-20T09:07:55.023Z,100386.53
2018-11-20T09:13:15.618Z,100385.16
2018-11-20T09:18:45.706Z,100395.14
2018-11-20T09:23:55.571Z,100375.13
2018-11-20T09:29:12.940Z,100368.39
2018-11-20T09:34:27.981Z,100367.57
2018-11-20T09:39:45.482Z,100366.42
2018-11-20T09:46:12.331Z,100362.50
2018-11-20T09:51:35.696Z,100366.73
2018-11-20T09:56:50.603Z,100373.09
2018-11-20T10:01:56.316Z,100360.40
2018-11-20T10:07:09.776Z,100360.14
2018-11-20T10:12:43.018Z,100360.33
2018-11-20T10:17:57.882Z,100360.14
2018-11-20T10:23:11.231Z,100358.16
2018-11-20T10:28:24.956Z,100351.37
2018-11-20T10:33:38.406Z,100346.23
2018-11-20T10:38:42.671Z,100334.11
2018-11-20T10:44:03.696Z,100327.60
2018-11-20T10:49:18.615Z,100327.09
2018-11-20T10:54:37.571Z,100319.25
2018-11-20T10:59:57.813Z,100305.58
2018-11-20T11:05:11.183Z,100311.14
2018-11-20T11:10:19.555Z,100298.70
2018-11-20T11:15:30.554Z,100292.66
2018-11-20T11:20:54.288Z,100285.98
2018-11-20T11:26:08.166Z,100274.73
2018-11-20T11:31:21.470Z,100272.30
2018-11-20T11:36:39.362Z,100272.02
2018-11-20T11:42:03.322Z,100271.67
2018-11-20T11:47:16.705Z,100270.80
2018-11-20T11:52:33.130Z,100272.23
2018-11-20T11:58:06.035Z,100267.22
2018-11-20T12:03:23.723Z,100272.03
2018-11-20T12:08:50.684Z,100267.65
2018-11-20T12:14:13.383Z,100256.27
2018-11-20T12:19:28.273Z,100265.96
2018-11-20T12:24:52.216Z,100252.44
2018-11-20T12:30:02.287Z,100251.35
2018-11-20T12:35:15.628Z,100248.23
2018-11-20T12:40:22.860Z,100243.19
2018-11-20T12:45:38.563Z,100247.02
2018-11-20T12:50:56.495Z,100246.11
2018-11-20T12:56:20.333Z,100246.42
2018-11-20T13:01:35.086Z,100253.33
2018-11-20T13:06:47.739Z,100255.09
2018-11-20T13:11:57.502Z,100248.52
2018-11-20T13:17:21.392Z,100239.28
2018-11-20T13:22:37.490Z,100240.64
2018-11-20T13:27:54.276Z,100235.84
2018-11-20T13:33:09.304Z,100233.86
2018-11-20T13:38:36.098Z,100232.26
2018-11-20T13:43:52.288Z,100247.09
2018-11-20T13:49:19.421Z,100234.31
2018-11-20T13:54:34.560Z,100221.25
2018-11-20T13:59:48.062Z,100236.20
2018-11-20T14:05:03.096Z,100213.23
2018-11-20T14:10:09.678Z,100209.66
2018-11-20T14:15:23.407Z,100212.28
2018-11-20T14:20:37.188Z,100207.27
2018-11-20T14:25:54.020Z,100193.76
2018-11-20T14:31:11.856Z,100207.86
2018-11-20T14:36:25.393Z,100200.84
2018-11-20T14:41:43.633Z,100211.27
2018-11-20T14:46:57.300Z,100214.56
2018-11-20T14:52:20.898Z,100217.19
2018-11-20T14:57:35.741Z,100214.34
2018-11-20T15:03:08.809Z,100220.00
2018-11-20T15:08:22.355Z,100227.50
2018-11-20T15:13:42.984Z,100226.70
2018-11-20T15:19:03.861Z,100223.28
2018-11-20T15:24:17.354Z,100219.91
2018-11-20T15:29:31.053Z,100220.17
2018-11-20T15:34:58.036Z,100227.25
2018-11-20T15:40:15.899Z,100229.81
2018-11-20T15:45:30.742Z,100237.44
2018-11-20T15:50:54.848Z,100239.20
2018-11-20T15:56:21.962Z,100227.38
2018-11-20T16:01:43.541Z,100222.14
2018-11-20T16:07:04.097Z,100229.25
2018-11-20T16:12:28.968Z,100219.72
2018-11-20T16:17:46.914Z,100219.78
2018-11-20T16:23:01.841Z,100232.92
2018-11-20T16:28:16.759Z,100230.94
2018-11-20T16:33:30.442Z,100227.88
2018-11-20T16:38:57.416Z,100225.28
2018-11-20T16:44:21.104Z,100219.28
2018-11-20T16:49:38.749Z,100258.39
2018-11-20T16:54:47.304Z,100229.23
2018-11-20T17:00:05.145Z,100226.33
2018-11-20T17:05:25.277Z,100222.01
2018-11-20T17:10:42.965Z,100233.42
2018-11-20T17:15:58.948Z,100234.80
2018-11-20T17:21:14.167Z,100265.78
2018-11-20T17:26:22.759Z,100294.80
2018-11-20T17:31:36.380Z,100280.06
2018-11-20T17:36:49.756Z,100281.89
2018-11-20T17:41:59.236Z,100286.45
2018-11-20T17:47:19.897Z,100273.03
2018-11-20T17:52:33.845Z,100295.13
2018-11-20T17:57:48.693Z,100283.74
2018-11-20T18:03:22.443Z,100280.93
2018-11-20T18:08:37.298Z,100283.61
2018-11-20T18:14:03.233Z,100277.89
2018-11-20T18:19:16.988Z,100295.16
2018-11-20T18:24:46.769Z,100295.54
2018-11-20T18:29:50.215Z,100286.11
2018-11-20T18:34:57.941Z,100302.22
2018-11-20T18:40:11.489Z,100305.97
2018-11-20T18:45:33.271Z,100309.52
2018-11-20T18:50:59.291Z,100311.66
2018-11-20T18:56:19.825Z,100303.66
2018-11-20T19:01:34.855Z,100296.28
2018-11-20T19:06:55.817Z,100299.09
2018-11-20T19:12:28.658Z,100318.27
2018-11-20T19:17:49.439Z,100319.20
2018-11-20T19:23:03.097Z,100328.80
2018-11-20T19:28:17.970Z,100326.05
2018-11-20T19:33:47.340Z,100335.52
2018-11-20T19:39:08.500Z,100339.31
2018-11-20T19:44:26.304Z,100360.53
2018-11-20T19:49:43.835Z,100366.13
2018-11-20T19:54:57.528Z,100374.73
2018-11-20T20:00:07.768Z,100372.44
2018-11-20T20:05:21.602Z,100380.03
2018-11-20T20:10:36.603Z,100389.64
2018-11-20T20:15:46.467Z,100378.66
2018-11-20T20:21:04.236Z,100368.80
2018-11-20T20:26:31.145Z,100370.45
2018-11-20T20:31:48.674Z,100377.73
2018-11-20T20:37:02.406Z,100380.81
2018-11-20T20:42:23.338Z,100389.66
2018-11-20T20:47:36.958Z,100387.13
2018-11-20T20:52:50.369Z,100410.13
2018-11-20T20:59:09.414Z,100407.72
2018-11-20T21:04:38.270Z,100417.84
2018-11-20T21:09:49.301Z,100423.84
2018-11-20T21:15:05.787Z,100444.56
2018-11-20T21:20:18.121Z,100429.95
2018-11-20T21:25:31.965Z,100453.84
2018-11-20T21:30:56.115Z,100445.00
2018-11-20T21:36:18.906Z,100456.15
2018-11-20T21:41:44.882Z,100477.63
2018-11-20T21:47:16.566Z,100479.75
2018-11-20T21:52:33.082Z,100475.55
2018-11-20T21:57:49.797Z,100485.50
2018-11-20T22:03:04.429Z,100474.55
2018-11-20T22:08:07.097Z,100485.84
2018-11-20T22:13:30.232Z,100488.40
2018-11-20T22:18:43.995Z,100499.62
2018-11-20T22:24:00.405Z,100512.29
2018-11-20T22:29:12.865Z,100518.78
2018-11-20T22:34:41.501Z,100519.87
2018-11-20T22:39:53.996Z,100512.17
2018-11-20T22:44:58.063Z,100510.30
2018-11-20T22:50:02.923Z,100528.06
2018-11-20T22:55:34.891Z,100523.52
2018-11-20T23:00:47.250Z,100515.98
2018-11-20T23:05:59.299Z,100514.67
2018-11-20T23:10:53.946Z,100525.55
2018-11-20T23:15:48.657Z,100514.38
2018-11-20T23:20:43.272Z,100519.95
2018-11-20T23:25:37.985Z,100514.44
2018-11-20T23:30:32.647Z,100507.73
2018-11-20T23:35:27.393Z,100506.88
2018-11-20T23:40:21.998Z,100493.13
2018-11-20T23:45:16.927Z,100502.47
2018-11-20T23:50:13.548Z,100491.83
2018-11-20T23:55:11.486Z,100491.36
